sensor_id;sensor_type;location;lat;lon;timestamp;pressure;altitude;pressure_sealevel;temperature
14666;BMP280;7420;53.574;10.040;2023-01-15T00:01:02;99177.75;;;6.74
14666;BMP280;7420;53.574;10.040;2023-01-15T00:03:28;99181.03;;;6.69
14666;BMP280;7420;53.574;10.040;2023-01-15T00:05:53;99178.78;;;6.73
14666;BMP280;7420;53.574;10.040;2023-01-15T00:08:19;99182.97;;;6.62
14666;BMP280;7420;53.574;10.040;2023-01-15T00:10:44;99186.06;;;6.53
14666;BMP280;7420;53.574;10.040;2023-01-15T00:13:10;99184.47;;;6.52
14666;BMP280;7420;53.574;10.040;2023-01-15T00:15:35;99184.47;;;6.52
14666;BMP280;7420;53.574;10.040;2023-01-15T00:18:01;99179.94;;;6.59
14666;BMP280;7420;53.574;10.040;2023-01-15T00:20:26;99174.50;;;6.54
14666;BMP280;7420;53.574;10.040;2023-01-15T00:22:52;99159.25;;;6.56
14666;BMP280;7420;53.574;10.040;2023-01-15T00:25:17;99159.19;;;6.44
14666;BMP280;7420;53.574;10.040;2023-01-15T00:28:01;99166.16;;;6.39
14666;BMP280;7420;53.574;10.040;2023-01-15T00:30:26;99178.75;;;6.37
14666;BMP280;7420;53.574;10.040;2023-01-15T00:32:52;99173.25;;;6.38
14666;BMP280;7420;53.574;10.040;2023-01-15T00:35:19;99186.66;;;6.37
14666;BMP280;7420;53.574;10.040;2023-01-15T00:37:45;99188.72;;;6.35
14666;BMP280;7420;53.574;10.040;2023-01-15T00:40:12;99188.88;;;6.40
14666;BMP280;7420;53.574;10.040;2023-01-15T00:42:38;99196.78;;;6.40
14666;BMP280;7420;53.574;10.040;2023-01-15T00:45:05;99199.03;;;6.36
14666;BMP280;7420;53.574;10.040;2023-01-15T00:47:41;99198.84;;;6.38
14666;BMP280;7420;53.574;10.040;2023-01-15T00:50:12;99224.41;;;6.37
14666;BMP280;7420;53.574;10.040;2023-01-15T00:52:38;99211.44;;;6.36
14666;BMP280;7420;53.574;10.040;2023-01-15T00:55:05;99204.53;;;6.35
14666;BMP280;7420;53.574;10.040;2023-01-15T00:57:30;99207.53;;;6.38
14666;BMP280;7420;53.574;10.040;2023-01-15T00:59:56;99210.16;;;6.45
14666;BMP280;7420;53.574;10.040;2023-01-15T01:02:21;99219.13;;;6.37
14666;BMP280;7420;53.574;10.040;2023-01-15T01:04:47;99222.78;;;6.36
14666;BMP280;7420;53.574;10.040;2023-01-15T01:07:12;99237.41;;;6.39
14666;BMP280;7420;53.574;10.040;2023-01-15T01:09:37;99244.72;;;6.37
14666;BMP280;7420;53.574;10.040;2023-01-15T01:12:03;99227.63;;;6.39
14666;BMP280;7420;53.574;10.040;2023-01-15T01:14:28;99234.16;;;6.37
14666;BMP280;7420;53.574;10.040;2023-01-15T01:16:54;99235.78;;;6.38
14666;BMP280;7420;53.574;10.040;2023-01-15T01:19:22;99246.09;;;6.39
14666;BMP280;7420;53.574;10.040;2023-01-15T01:21:48;99256.47;;;6.41
14666;BMP280;7420;53.574;10.040;2023-01-15T01:24:17;99243.25;;;6.41
14666;BMP280;7420;53.574;10.040;2023-01-15T01:26:43;99248.31;;;6.42
14666;BMP280;7420;53.574;10.040;2023-01-15T01:29:11;99237.41;;;6.39
14666;BMP280;7420;53.574;10.040;2023-01-15T01:31:37;99242.66;;;6.39
14666;BMP280;7420;53.574;10.040;2023-01-15T01:34:02;99242.88;;;6.37
14666;BMP280;7420;53.574;10.040;2023-01-15T01:36:30;99260.75;;;6.35
14666;BMP280;7420;53.574;10.040;2023-01-15T01:38:56;99230.50;;;6.38
14666;BMP280;7420;53.574;10.040;2023-01-15T01:41:22;99230.09;;;6.34
14666;BMP280;7420;53.574;10.040;2023-01-15T01:43:56;99239.03;;;6.33
14666;BMP280;7420;53.574;10.040;2023-01-15T01:46:22;99241.06;;;6.38
14666;BMP280;7420;53.574;10.040;2023-01-15T01:48:50;99246.53;;;6.36
14666;BMP280;7420;53.574;10.040;2023-01-15T01:51:18;99238.84;;;6.35
14666;BMP280;7420;53.574;10.040;2023-01-15T01:53:43;99248.97;;;6.38
14666;BMP280;7420;53.574;10.040;2023-01-15T01:56:09;99253.00;;;6.40
14666;BMP280;7420;53.574;10.040;2023-01-15T01:58:35;99242.66;;;6.39
14666;BMP280;7420;53.574;10.040;2023-01-15T02:01:01;99243.84;;;6.43
14666;BMP280;7420;53.574;10.040;2023-01-15T02:03:31;99238.56;;;6.43
14666;BMP280;7420;53.574;10.040;2023-01-15T02:06:00;99243.84;;;6.43
14666;BMP280;7420;53.574;10.040;2023-01-15T02:08:26;99234.47;;;6.47
14666;BMP280;7420;53.574;10.040;2023-01-15T02:10:54;99230.44;;;6.44
14666;BMP280;7420;53.574;10.040;2023-01-15T02:13:38;99225.97;;;6.45
14666;BMP280;7420;53.574;10.040;2023-01-15T02:16:10;99232.03;;;6.45
14666;BMP280;7420;53.574;10.040;2023-01-15T02:18:43;99219.88;;;6.44
14666;BMP280;7420;53.574;10.040;2023-01-15T02:24:20;99236.53;;;6.45
14666;BMP280;7420;53.574;10.040;2023-01-15T02:29:35;99231.84;;;6.47
14666;BMP280;7420;53.574;10.040;2023-01-15T02:32:04;99207.63;;;6.50
14666;BMP280;7420;53.574;10.040;2023-01-15T02:34:34;99222.44;;;6.51
14666;BMP280;7420;53.574;10.040;2023-01-15T02:37:14;99235.63;;;6.51
14666;BMP280;7420;53.574;10.040;2023-01-15T02:39:44;99223.03;;;6.53
14666;BMP280;7420;53.574;10.040;2023-01-15T02:42:11;99217.13;;;6.57
14666;BMP280;7420;53.574;10.040;2023-01-15T02:44:41;99232.97;;;6.57
14666;BMP280;7420;53.574;10.040;2023-01-15T02:47:08;99198.41;;;6.59
14666;BMP280;7420;53.574;10.040;2023-01-15T02:49:36;99200.69;;;6.55
14666;BMP280;7420;53.574;10.040;2023-01-15T02:52:12;99192.53;;;6.57
14666;BMP280;7420;53.574;10.040;2023-01-15T02:54:46;99196.59;;;6.59
14666;BMP280;7420;53.574;10.040;2023-01-15T02:57:14;99205.16;;;6.55
14666;BMP280;7420;53.574;10.040;2023-01-15T02:59:44;99195.84;;;6.52
14666;BMP280;7420;53.574;10.040;2023-01-15T03:02:20;99212.28;;;6.54
14666;BMP280;7420;53.574;10.040;2023-01-15T03:04:52;99218.94;;;6.57
14666;BMP280;7420;53.574;10.040;2023-01-15T03:07:24;99208.81;;;6.54
14666;BMP280;7420;53.574;10.040;2023-01-15T03:09:53;99210.44;;;6.55
14666;BMP280;7420;53.574;10.040;2023-01-15T03:12:26;99211.28;;;6.49
14666;BMP280;7420;53.574;10.040;2023-01-15T03:15:05;99222.44;;;6.51
14666;BMP280;7420;53.574;10.040;2023-01-15T03:17:37;99205.16;;;6.55
14666;BMP280;7420;53.574;10.040;2023-01-15T03:20:16;99223.03;;;6.53
14666;BMP280;7420;53.574;10.040;2023-01-15T03:22:48;99222.44;;;6.51
14666;BMP280;7420;53.574;10.040;2023-01-15T03:25:20;99204.41;;;6.48
14666;BMP280;7420;53.574;10.040;2023-01-15T03:27:49;99219.00;;;6.50
14666;BMP280;7420;53.574;10.040;2023-01-15T03:30:19;99212.47;;;6.53
14666;BMP280;7420;53.574;10.040;2023-01-15T03:32:46;99197.66;;;6.52
14666;BMP280;7420;53.574;10.040;2023-01-15T03:38:15;99186.16;;;6.46
14666;BMP280;7420;53.574;10.040;2023-01-15T03:41:34;99192.69;;;6.44
14666;BMP280;7420;53.574;10.040;2023-01-15T03:46:06;99198.75;;;6.44
14666;BMP280;7420;53.574;10.040;2023-01-15T03:48:42;99192.25;;;6.47
14666;BMP280;7420;53.574;10.040;2023-01-15T03:51:18;99233.59;;;6.53
14666;BMP280;7420;53.574;10.040;2023-01-15T03:53:48;99204.63;;;6.46
14666;BMP280;7420;53.574;10.040;2023-01-15T03:56:30;99190.19;;;6.49
14666;BMP280;7420;53.574;10.040;2023-01-15T03:59:02;99183.75;;;6.45
14666;BMP280;7420;53.574;10.040;2023-01-15T04:01:34;99195.53;;;6.42
14666;BMP280;7420;53.574;10.040;2023-01-15T04:04:01;99176.03;;;6.43
14666;BMP280;7420;53.574;10.040;2023-01-15T04:06:29;99176.84;;;6.44
14666;BMP280;7420;53.574;10.040;2023-01-15T04:08:55;99168.34;;;6.42
14666;BMP280;7420;53.574;10.040;2023-01-15T04:11:23;99178.31;;;6.40
14666;BMP280;7420;53.574;10.040;2023-01-15T04:13:49;99178.91;;;6.42
14666;BMP280;7420;53.574;10.040;2023-01-15T04:16:22;99179.34;;;6.39
14666;BMP280;7420;53.574;10.040;2023-01-15T04:18:48;99182.56;;;6.41
14666;BMP280;7420;53.574;10.040;2023-01-15T04:21:13;99169.38;;;6.41
14666;BMP280;7420;53.574;10.040;2023-01-15T04:23:38;99168.41;;;6.35
14666;BMP280;7420;53.574;10.040;2023-01-15T04:26:04;99166.78;;;6.34
14666;BMP280;7420;53.574;10.040;2023-01-15T04:28:32;99162.09;;;6.36
14666;BMP280;7420;53.574;10.040;2023-01-15T04:30:57;99165.56;;;6.37
14666;BMP280;7420;53.574;10.040;2023-01-15T04:33:24;99165.56;;;6.37
14666;BMP280;7420;53.574;10.040;2023-01-15T04:35:49;99156.22;;;6.34
14666;BMP280;7420;53.574;10.040;2023-01-15T04:38:14;99168.78;;;6.39
14666;BMP280;7420;53.574;10.040;2023-01-15T04:40:42;99162.31;;;6.35
14666;BMP280;7420;53.574;10.040;2023-01-15T04:43:26;99150.94;;;6.34
14666;BMP280;7420;53.574;10.040;2023-01-15T04:46:10;99158.28;;;6.32
14666;BMP280;7420;53.574;10.040;2023-01-15T04:48:37;99171.47;;;6.32
14666;BMP280;7420;53.574;10.040;2023-01-15T04:51:04;99171.28;;;6.34
14666;BMP280;7420;53.574;10.040;2023-01-15T04:53:30;99165.00;;;6.28
14666;BMP280;7420;53.574;10.040;2023-01-15T04:56:00;99160.31;;;6.30
14666;BMP280;7420;53.574;10.040;2023-01-15T04:58:26;99176.97;;;6.31
14666;BMP280;7420;53.574;10.040;2023-01-15T05:00:52;99172.28;;;6.33
14666;BMP280;7420;53.574;10.040;2023-01-15T05:03:17;99174.09;;;6.32
14666;BMP280;7420;53.574;10.040;2023-01-15T05:05:42;99162.00;;;6.25
14666;BMP280;7420;53.574;10.040;2023-01-15T05:08:08;99138.06;;;6.26
14666;BMP280;7420;53.574;10.040;2023-01-15T05:10:33;99154.69;;;6.27
14666;BMP280;7420;53.574;10.040;2023-01-15T05:12:59;99150.22;;;6.27
14666;BMP280;7420;53.574;10.040;2023-01-15T05:15:24;99154.69;;;6.27
14666;BMP280;7420;53.574;10.040;2023-01-15T05:17:49;99144.13;;;6.27
14666;BMP280;7420;53.574;10.040;2023-01-15T05:20:15;99149.41;;;6.27
14666;BMP280;7420;53.574;10.040;2023-01-15T05:22:40;99138.25;;;6.25
14666;BMP280;7420;53.574;10.040;2023-01-15T05:25:06;99154.69;;;6.27
14666;BMP280;7420;53.574;10.040;2023-01-15T05:27:31;99130.94;;;6.27
14666;BMP280;7420;53.574;10.040;2023-01-15T05:29:57;99140.47;;;6.28
14666;BMP280;7420;53.574;10.040;2023-01-15T05:32:22;99144.97;;;6.27
14666;BMP280;7420;53.574;10.040;2023-01-15T05:34:47;99144.56;;;6.24
14666;BMP280;7420;53.574;10.040;2023-01-15T05:37:13;99138.50;;;6.23
14666;BMP280;7420;53.574;10.040;2023-01-15T05:39:38;99169.94;;;6.25
14666;BMP280;7420;53.574;10.040;2023-01-15T05:42:04;99181.50;;;6.24
14666;BMP280;7420;53.574;10.040;2023-01-15T05:44:29;99150.88;;;6.23
14666;BMP280;7420;53.574;10.040;2023-01-15T05:46:57;99151.31;;;6.20
14666;BMP280;7420;53.574;10.040;2023-01-15T05:49:25;99161.84;;;6.20
14666;BMP280;7420;53.574;10.040;2023-01-15T05:51:51;99156.56;;;6.20
14666;BMP280;7420;53.574;10.040;2023-01-15T05:54:26;99155.19;;;6.17
14666;BMP280;7420;53.574;10.040;2023-01-15T05:56:53;99160.66;;;6.16
14666;BMP280;7420;53.574;10.040;2023-01-15T05:59:20;99157.25;;;6.15
14666;BMP280;7420;53.574;10.040;2023-01-15T06:01:46;99161.69;;;6.15
14666;BMP280;7420;53.574;10.040;2023-01-15T06:04:13;99146.44;;;6.17
14666;BMP280;7420;53.574;10.040;2023-01-15T06:06:39;99146.88;;;6.14
14666;BMP280;7420;53.574;10.040;2023-01-15T06:09:04;99154.00;;;6.13
14666;BMP280;7420;53.574;10.040;2023-01-15T06:11:30;99147.47;;;6.16
14666;BMP280;7420;53.574;10.040;2023-01-15T06:13:56;99148.06;;;6.18
14666;BMP280;7420;53.574;10.040;2023-01-15T06:16:21;99157.00;;;6.17
14666;BMP280;7420;53.574;10.040;2023-01-15T06:18:47;99148.66;;;6.20
14666;BMP280;7420;53.574;10.040;2023-01-15T06:21:13;99173.44;;;6.19
14666;BMP280;7420;53.574;10.040;2023-01-15T06:23:39;99152.28;;;6.25
14666;BMP280;7420;53.574;10.040;2023-01-15T06:26:09;99158.00;;;6.22
14666;BMP280;7420;53.574;10.040;2023-01-15T06:28:34;99149.41;;;6.27
14666;BMP280;7420;53.574;10.040;2023-01-15T06:31:03;99148.38;;;6.28
14666;BMP280;7420;53.574;10.040;2023-01-15T06:33:29;99149.41;;;6.27
14666;BMP280;7420;53.574;10.040;2023-01-15T06:35:54;99146.53;;;6.28
14666;BMP280;7420;53.574;10.040;2023-01-15T06:38:20;99157.31;;;6.27
14666;BMP280;7420;53.574;10.040;2023-01-15T06:40:45;99155.94;;;6.24
14666;BMP280;7420;53.574;10.040;2023-01-15T06:43:10;99150.28;;;6.21
14666;BMP280;7420;53.574;10.040;2023-01-15T06:45:55;99165.66;;;6.24
14666;BMP280;7420;53.574;10.040;2023-01-15T06:48:39;99156.72;;;6.25
14666;BMP280;7420;53.574;10.040;2023-01-15T06:51:04;99161.00;;;6.26
14666;BMP280;7420;53.574;10.040;2023-01-15T06:53:30;99175.78;;;6.27
14666;BMP280;7420;53.574;10.040;2023-01-15T06:55:55;99154.09;;;6.25
14666;BMP280;7420;53.574;10.040;2023-01-15T06:58:20;99157.75;;;6.24
14666;BMP280;7420;53.574;10.040;2023-01-15T07:00:48;99150.06;;;6.22
14666;BMP280;7420;53.574;10.040;2023-01-15T07:03:20;99151.47;;;6.25
14666;BMP280;7420;53.574;10.040;2023-01-15T07:05:45;99157.16;;;6.22
14666;BMP280;7420;53.574;10.040;2023-01-15T07:08:10;99140.13;;;6.24
14666;BMP280;7420;53.574;10.040;2023-01-15T07:10:36;99157.91;;;6.29
14666;BMP280;7420;53.574;10.040;2023-01-15T07:13:01;99155.34;;;6.22
14666;BMP280;7420;53.574;10.040;2023-01-15T07:15:26;99166.94;;;6.21
14666;BMP280;7420;53.574;10.040;2023-01-15T07:17:56;99160.03;;;6.20
14666;BMP280;7420;53.574;10.040;2023-01-15T07:20:22;99160.41;;;6.24
14666;BMP280;7420;53.574;10.040;2023-01-15T07:22:48;99148.66;;;6.20
14666;BMP280;7420;53.574;10.040;2023-01-15T07:25:14;99151.69;;;6.23
14666;BMP280;7420;53.574;10.040;2023-01-15T07:27:39;99147.44;;;6.22
14666;BMP280;7420;53.574;10.040;2023-01-15T07:30:05;99157.25;;;6.15
14666;BMP280;7420;53.574;10.040;2023-01-15T07:32:30;99146.53;;;6.10
14666;BMP280;7420;53.574;10.040;2023-01-15T07:34:56;99145.94;;;6.08
14666;BMP280;7420;53.574;10.040;2023-01-15T07:37:21;99160.75;;;6.09
14666;BMP280;7420;53.574;10.040;2023-01-15T07:39:46;99137.19;;;6.08
14666;BMP280;7420;53.574;10.040;2023-01-15T07:42:12;99147.97;;;6.06
14666;BMP280;7420;53.574;10.040;2023-01-15T07:44:56;99150.19;;;6.09
14666;BMP280;7420;53.574;10.040;2023-01-15T07:47:40;99164.63;;;6.07
14666;BMP280;7420;53.574;10.040;2023-01-15T07:50:24;99162.00;;;6.07
14666;BMP280;7420;53.574;10.040;2023-01-15T07:52:49;99163.00;;;6.06
14666;BMP280;7420;53.574;10.040;2023-01-15T07:55:15;99158.16;;;6.03
14666;BMP280;7420;53.574;10.040;2023-01-15T07:57:41;99162.00;;;6.07
14666;BMP280;7420;53.574;10.040;2023-01-15T08:00:09;99167.81;;;6.09
14666;BMP280;7420;53.574;10.040;2023-01-15T08:02:35;99160.50;;;6.11
14666;BMP280;7420;53.574;10.040;2023-01-15T08:05:01;99162.19;;;6.05
14666;BMP280;7420;53.574;10.040;2023-01-15T08:07:26;99148.81;;;6.07
14666;BMP280;7420;53.574;10.040;2023-01-15T08:09:51;99158.47;;;6.13
14666;BMP280;7420;53.574;10.040;2023-01-15T08:12:17;99177.34;;;6.10
14666;BMP280;7420;53.574;10.040;2023-01-15T08:15:01;99166.81;;;6.10
14666;BMP280;7420;53.574;10.040;2023-01-15T08:17:40;99160.91;;;6.14
14666;BMP280;7420;53.574;10.040;2023-01-15T08:20:13;99156.84;;;6.12
14666;BMP280;7420;53.574;10.040;2023-01-15T08:22:39;99164.91;;;6.17
14666;BMP280;7420;53.574;10.040;2023-01-15T08:25:06;99174.69;;;6.16
14666;BMP280;7420;53.574;10.040;2023-01-15T08:27:32;99177.91;;;6.18
14666;BMP280;7420;53.574;10.040;2023-01-15T08:29:57;99174.44;;;6.18
14666;BMP280;7420;53.574;10.040;2023-01-15T08:32:23;99171.03;;;6.17
14666;BMP280;7420;53.574;10.040;2023-01-15T08:34:49;99173.06;;;6.15
14666;BMP280;7420;53.574;10.040;2023-01-15T08:37:14;99176.34;;;6.11
14666;BMP280;7420;53.574;10.040;2023-01-15T08:39:40;99166.16;;;6.14
14666;BMP280;7420;53.574;10.040;2023-01-15T08:42:05;99180.38;;;6.13
14666;BMP280;7420;53.574;10.040;2023-01-15T08:44:31;99174.28;;;6.13
14666;BMP280;7420;53.574;10.040;2023-01-15T08:46:57;99163.00;;;6.06
14666;BMP280;7420;53.574;10.040;2023-01-15T08:49:22;99144.97;;;6.03
14666;BMP280;7420;53.574;10.040;2023-01-15T08:51:48;99140.72;;;6.02
14666;BMP280;7420;53.574;10.040;2023-01-15T08:54:19;99144.97;;;6.03
14666;BMP280;7420;53.574;10.040;2023-01-15T08:56:45;99141.31;;;6.04
14666;BMP280;7420;53.574;10.040;2023-01-15T08:59:11;99150.88;;;5.98
14666;BMP280;7420;53.574;10.040;2023-01-15T09:01:36;99138.53;;;5.99
14666;BMP280;7420;53.574;10.040;2023-01-15T09:04:02;99144.81;;;5.98
14666;BMP280;7420;53.574;10.040;2023-01-15T09:06:28;99140.75;;;5.95
14666;BMP280;7420;53.574;10.040;2023-01-15T09:08:53;99139.97;;;5.95
14666;BMP280;7420;53.574;10.040;2023-01-15T09:11:19;99132.66;;;5.97
14666;BMP280;7420;53.574;10.040;2023-01-15T09:13:44;99135.28;;;5.97
14666;BMP280;7420;53.574;10.040;2023-01-15T09:16:11;99120.94;;;5.93
14666;BMP280;7420;53.574;10.040;2023-01-15T09:18:37;99137.97;;;5.90
14666;BMP280;7420;53.574;10.040;2023-01-15T09:21:04;99132.09;;;5.88
14666;BMP280;7420;53.574;10.040;2023-01-15T09:23:29;99129.47;;;5.88
14666;BMP280;7420;53.574;10.040;2023-01-15T09:26:00;99141.84;;;5.88
14666;BMP280;7420;53.574;10.040;2023-01-15T09:28:29;99138.34;;;5.94
14666;BMP280;7420;53.574;10.040;2023-01-15T09:30:54;99142.97;;;5.98
14666;BMP280;7420;53.574;10.040;2023-01-15T09:33:20;99142.94;;;6.05
14666;BMP280;7420;53.574;10.040;2023-01-15T09:35:45;99140.81;;;6.13
14666;BMP280;7420;53.574;10.040;2023-01-15T09:38:15;99144.84;;;6.16
14666;BMP280;7420;53.574;10.040;2023-01-15T09:46:03;99148.50;;;6.15
14666;BMP280;7420;53.574;10.040;2023-01-15T09:48:51;99159.22;;;6.20
14666;BMP280;7420;53.574;10.040;2023-01-15T09:54:10;99180.47;;;6.25
14666;BMP280;7420;53.574;10.040;2023-01-15T09:56:39;99162.16;;;6.30
14666;BMP280;7420;53.574;10.040;2023-01-15T09:59:19;99174.53;;;6.29
14666;BMP280;7420;53.574;10.040;2023-01-15T10:01:48;99169.00;;;6.37
14666;BMP280;7420;53.574;10.040;2023-01-15T10:07:05;99167.09;;;6.44
14666;BMP280;7420;53.574;10.040;2023-01-15T10:09:38;99158.97;;;6.46
14666;BMP280;7420;53.574;10.040;2023-01-15T10:12:20;99167.75;;;6.40
14666;BMP280;7420;53.574;10.040;2023-01-15T10:17:42;99154.41;;;6.53
14666;BMP280;7420;53.574;10.040;2023-01-15T10:20:15;99148.09;;;6.54
14666;BMP280;7420;53.574;10.040;2023-01-15T10:25:19;99161.75;;;6.51
14666;BMP280;7420;53.574;10.040;2023-01-15T10:27:50;99167.13;;;6.62
14666;BMP280;7420;53.574;10.040;2023-01-15T10:32:45;99180.00;;;6.88
14666;BMP280;7420;53.574;10.040;2023-01-15T10:35:22;99157.22;;;6.76
14666;BMP280;7420;53.574;10.040;2023-01-15T10:37:57;99168.22;;;6.73
14666;BMP280;7420;53.574;10.040;2023-01-15T10:40:39;99157.38;;;6.81
14666;BMP280;7420;53.574;10.040;2023-01-15T10:43:10;99141.47;;;6.98
14666;BMP280;7420;53.574;10.040;2023-01-15T10:45:43;99158.88;;;6.88
14666;BMP280;7420;53.574;10.040;2023-01-15T10:48:27;99153.06;;;6.97
14666;BMP280;7420;53.574;10.040;2023-01-15T10:50:54;99136.81;;;6.82
14666;BMP280;7420;53.574;10.040;2023-01-15T10:53:26;99142.59;;;6.91
14666;BMP280;7420;53.574;10.040;2023-01-15T10:55:59;99136.19;;;7.16
14666;BMP280;7420;53.574;10.040;2023-01-15T10:58:45;99125.50;;;6.93
14666;BMP280;7420;53.574;10.040;2023-01-15T11:01:16;99110.78;;;6.86
14666;BMP280;7420;53.574;10.040;2023-01-15T11:03:43;99170.25;;;6.88
14666;BMP280;7420;53.574;10.040;2023-01-15T11:06:15;99123.03;;;6.81
14666;BMP280;7420;53.574;10.040;2023-01-15T11:08:48;99131.75;;;6.81
14666;BMP280;7420;53.574;10.040;2023-01-15T11:14:39;99117.34;;;6.95
14666;BMP280;7420;53.574;10.040;2023-01-15T11:17:26;99099.81;;;7.00
14666;BMP280;7420;53.574;10.040;2023-01-15T11:20:17;99115.22;;;7.03
14666;BMP280;7420;53.574;10.040;2023-01-15T11:22:44;99121.22;;;7.10
14666;BMP280;7420;53.574;10.040;2023-01-15T11:25:09;99110.06;;;7.08
14666;BMP280;7420;53.574;10.040;2023-01-15T11:27:36;99119.19;;;6.94
14666;BMP280;7420;53.574;10.040;2023-01-15T11:30:04;99084.00;;;6.82
14666;BMP280;7420;53.574;10.040;2023-01-15T11:32:35;99076.09;;;6.65
14666;BMP280;7420;53.574;10.040;2023-01-15T11:35:13;99105.66;;;6.55
14666;BMP280;7420;53.574;10.040;2023-01-15T11:37:39;99104.34;;;6.64
14666;BMP280;7420;53.574;10.040;2023-01-15T11:40:14;99106.31;;;6.69
14666;BMP280;7420;53.574;10.040;2023-01-15T11:42:45;99121.94;;;6.34
14666;BMP280;7420;53.574;10.040;2023-01-15T11:45:29;99124.06;;;6.26
14666;BMP280;7420;53.574;10.040;2023-01-15T11:48:19;99144.22;;;6.20
14666;BMP280;7420;53.574;10.040;2023-01-15T11:51:12;99111.41;;;5.92
14666;BMP280;7420;53.574;10.040;2023-01-15T11:53:42;99134.59;;;5.77
14666;BMP280;7420;53.574;10.040;2023-01-15T11:56:13;99152.41;;;5.26
14666;BMP280;7420;53.574;10.040;2023-01-15T11:58:44;99144.84;;;4.99
14666;BMP280;7420;53.574;10.040;2023-01-15T12:01:20;99185.50;;;4.59
14666;BMP280;7420;53.574;10.040;2023-01-15T12:03:48;99138.66;;;3.85
14666;BMP280;7420;53.574;10.040;2023-01-15T12:06:13;99102.50;;;3.67
14666;BMP280;7420;53.574;10.040;2023-01-15T12:08:50;99092.78;;;3.74
14666;BMP280;7420;53.574;10.040;2023-01-15T12:11:25;99109.41;;;4.51
14666;BMP280;7420;53.574;10.040;2023-01-15T12:19:24;99106.38;;;5.60
14666;BMP280;7420;53.574;10.040;2023-01-15T12:29:28;99135.56;;;13.09
14666;BMP280;7420;53.574;10.040;2023-01-15T12:31:59;99128.38;;;14.79
14666;BMP280;7420;53.574;10.040;2023-01-15T12:37:16;99119.81;;;11.79
14666;BMP280;7420;53.574;10.040;2023-01-15T12:42:17;99075.94;;;9.18
14666;BMP280;7420;53.574;10.040;2023-01-15T12:45:09;99061.41;;;5.79
14666;BMP280;7420;53.574;10.040;2023-01-15T12:58:53;99062.84;;;12.62
14666;BMP280;7420;53.574;10.040;2023-01-15T13:04:21;99046.81;;;9.51
14666;BMP280;7420;53.574;10.040;2023-01-15T13:06:56;99045.72;;;9.19
14666;BMP280;7420;53.574;10.040;2023-01-15T13:09:42;99025.72;;;7.82
14666;BMP280;7420;53.574;10.040;2023-01-15T13:12:17;99028.63;;;6.11
14666;BMP280;7420;53.574;10.040;2023-01-15T13:14:43;99030.53;;;5.86
14666;BMP280;7420;53.574;10.040;2023-01-15T13:17:38;99039.25;;;6.04
14666;BMP280;7420;53.574;10.040;2023-01-15T13:22:51;99047.53;;;5.90
14666;BMP280;7420;53.574;10.040;2023-01-15T13:31:00;99016.63;;;5.97
14666;BMP280;7420;53.574;10.040;2023-01-15T13:33:38;99023.13;;;5.94
14666;BMP280;7420;53.574;10.040;2023-01-15T13:36:26;99022.50;;;5.99
14666;BMP280;7420;53.574;10.040;2023-01-15T13:38:57;99020.66;;;5.99
14666;BMP280;7420;53.574;10.040;2023-01-15T13:41:30;99010.53;;;5.96
14666;BMP280;7420;53.574;10.040;2023-01-15T13:44:19;99018.59;;;6.01
14666;BMP280;7420;53.574;10.040;2023-01-15T13:46:46;99023.44;;;6.04
14666;BMP280;7420;53.574;10.040;2023-01-15T13:49:19;99030.25;;;6.12
14666;BMP280;7420;53.574;10.040;2023-01-15T13:51:47;99014.28;;;6.25
14666;BMP280;7420;53.574;10.040;2023-01-15T13:54:18;99020.56;;;6.42
14666;BMP280;7420;53.574;10.040;2023-01-15T13:56:45;99019.66;;;6.66
14666;BMP280;7420;53.574;10.040;2023-01-15T13:59:40;99115.00;;;7.46
14666;BMP280;7420;53.574;10.040;2023-01-15T14:04:50;99006.44;;;6.95
14666;BMP280;7420;53.574;10.040;2023-01-15T14:07:20;99006.03;;;7.32
14666;BMP280;7420;53.574;10.040;2023-01-15T14:09:54;99016.91;;;6.72
14666;BMP280;7420;53.574;10.040;2023-01-15T14:12:24;99000.50;;;6.41
14666;BMP280;7420;53.574;10.040;2023-01-15T14:15:15;99024.25;;;6.41
14666;BMP280;7420;53.574;10.040;2023-01-15T14:25:37;98995.16;;;6.59
14666;BMP280;7420;53.574;10.040;2023-01-15T14:36:15;98989.75;;;6.54
14666;BMP280;7420;53.574;10.040;2023-01-15T14:38:51;98999.50;;;6.53
14666;BMP280;7420;53.574;10.040;2023-01-15T14:41:28;98992.38;;;6.54
14666;BMP280;7420;53.574;10.040;2023-01-15T14:43:56;99009.84;;;6.55
14666;BMP280;7420;53.574;10.040;2023-01-15T14:46:32;99011.88;;;6.53
14666;BMP280;7420;53.574;10.040;2023-01-15T14:49:00;98996.63;;;6.55
14666;BMP280;7420;53.574;10.040;2023-01-15T14:51:27;99002.72;;;6.55
14666;BMP280;7420;53.574;10.040;2023-01-15T14:54:01;98998.63;;;6.59
14666;BMP280;7420;53.574;10.040;2023-01-15T14:56:33;99011.00;;;6.59
14666;BMP280;7420;53.574;10.040;2023-01-15T15:01:35;98988.84;;;6.60
14666;BMP280;7420;53.574;10.040;2023-01-15T15:04:09;98995.09;;;6.65
14666;BMP280;7420;53.574;10.040;2023-01-15T15:06:43;99015.63;;;6.63
14666;BMP280;7420;53.574;10.040;2023-01-15T15:09:11;99025.81;;;6.60
14666;BMP280;7420;53.574;10.040;2023-01-15T15:11:42;99021.78;;;6.57
14666;BMP280;7420;53.574;10.040;2023-01-15T15:14:28;99048.84;;;6.53
14666;BMP280;7420;53.574;10.040;2023-01-15T15:16:57;99064.53;;;6.48
14666;BMP280;7420;53.574;10.040;2023-01-15T15:19:32;99088.59;;;6.40
14666;BMP280;7420;53.574;10.040;2023-01-15T15:22:02;99057.66;;;6.29
14666;BMP280;7420;53.574;10.040;2023-01-15T15:24:35;99036.41;;;6.24
14666;BMP280;7420;53.574;10.040;2023-01-15T15:27:19;99071.72;;;6.23
14666;BMP280;7420;53.574;10.040;2023-01-15T15:29:44;99083.75;;;6.19
14666;BMP280;7420;53.574;10.040;2023-01-15T15:32:22;99100.16;;;6.03
14666;BMP280;7420;53.574;10.040;2023-01-15T15:34:51;99109.09;;;6.02
14666;BMP280;7420;53.574;10.040;2023-01-15T15:37:19;99130.22;;;5.95
14666;BMP280;7420;53.574;10.040;2023-01-15T15:39:55;99122.97;;;5.91
14666;BMP280;7420;53.574;10.040;2023-01-15T15:42:59;99143.53;;;5.82
14666;BMP280;7420;53.574;10.040;2023-01-15T15:45:34;99140.38;;;5.37
14666;BMP280;7420;53.574;10.040;2023-01-15T15:48:32;99150.03;;;5.18
14666;BMP280;7420;53.574;10.040;2023-01-15T15:51:30;99143.31;;;5.22
14666;BMP280;7420;53.574;10.040;2023-01-15T15:54:09;99153.44;;;5.19
14666;BMP280;7420;53.574;10.040;2023-01-15T15:56:35;99155.72;;;5.15
14666;BMP280;7420;53.574;10.040;2023-01-15T15:59:02;99157.16;;;5.11
14666;BMP280;7420;53.574;10.040;2023-01-15T16:01:30;99130.38;;;5.14
14666;BMP280;7420;53.574;10.040;2023-01-15T16:03:55;99136.44;;;5.15
14666;BMP280;7420;53.574;10.040;2023-01-15T16:06:23;99153.50;;;5.12
14666;BMP280;7420;53.574;10.040;2023-01-15T16:08:53;99178.03;;;5.06
14666;BMP280;7420;53.574;10.040;2023-01-15T16:11:20;99193.63;;;5.01
14666;BMP280;7420;53.574;10.040;2023-01-15T16:13:50;99143.66;;;4.95